sensor_id;sensor_type;location;lat;lon;timestamp;P1;durP1;ratioP1;P2;durP2;ratioP2
80123;SDS011;69433;48.642;9.142;2023-07-31T00:01:53;5.10;;;2.15;;
80123;SDS011;69433;48.642;9.142;2023-07-31T00:04:18;3.10;;;1.95;;
80123;SDS011;69433;48.642;9.142;2023-07-31T00:06:43;5.72;;;2.00;;
80123;SDS011;69433;48.642;9.142;2023-07-31T00:09:08;3.90;;;2.13;;
80123;SDS011;69433;48.642;9.142;2023-07-31T00:11:34;3.15;;;2.00;;
80123;SDS011;69433;48.642;9.142;2023-07-31T00:13:59;8.35;;;2.25;;
80123;SDS011;69433;48.642;9.142;2023-07-31T00:16:24;3.95;;;2.17;;
80123;SDS011;69433;48.642;9.142;2023-07-31T00:18:50;3.13;;;1.92;;
80123;SDS011;69433;48.642;9.142;2023-07-31T00:21:15;3.88;;;2.00;;
80123;SDS011;69433;48.642;9.142;2023-07-31T00:23:40;3.10;;;2.03;;
80123;SDS011;69433;48.642;9.142;2023-07-31T00:26:06;4.38;;;2.13;;
80123;SDS011;69433;48.642;9.142;2023-07-31T00:28:31;4.35;;;2.00;;
80123;SDS011;69433;48.642;9.142;2023-07-31T00:30:56;3.85;;;1.83;;
80123;SDS011;69433;48.642;9.142;2023-07-31T00:33:22;2.92;;;1.98;;
80123;SDS011;69433;48.642;9.142;2023-07-31T00:35:48;5.32;;;2.30;;
80123;SDS011;69433;48.642;9.142;2023-07-31T00:38:13;3.53;;;2.10;;
80123;SDS011;69433;48.642;9.142;2023-07-31T00:40:39;3.53;;;2.15;;
80123;SDS011;69433;48.642;9.142;2023-07-31T00:43:04;4.85;;;2.22;;
80123;SDS011;69433;48.642;9.142;2023-07-31T00:45:29;8.55;;;3.17;;
80123;SDS011;69433;48.642;9.142;2023-07-31T00:47:56;5.57;;;3.70;;
80123;SDS011;69433;48.642;9.142;2023-07-31T00:50:22;5.13;;;2.80;;
80123;SDS011;69433;48.642;9.142;2023-07-31T00:52:49;6.70;;;3.30;;
80123;SDS011;69433;48.642;9.142;2023-07-31T00:55:15;5.43;;;2.60;;
80123;SDS011;69433;48.642;9.142;2023-07-31T00:57:41;4.95;;;2.47;;
80123;SDS011;69433;48.642;9.142;2023-07-31T01:00:07;4.28;;;2.65;;
80123;SDS011;69433;48.642;9.142;2023-07-31T01:02:32;4.13;;;2.40;;
80123;SDS011;69433;48.642;9.142;2023-07-31T01:04:58;4.15;;;2.10;;
80123;SDS011;69433;48.642;9.142;2023-07-31T01:07:31;4.45;;;2.70;;
80123;SDS011;69433;48.642;9.142;2023-07-31T01:10:04;3.95;;;2.33;;
80123;SDS011;69433;48.642;9.142;2023-07-31T01:12:36;3.65;;;2.30;;
80123;SDS011;69433;48.642;9.142;2023-07-31T01:15:04;4.18;;;2.25;;
80123;SDS011;69433;48.642;9.142;2023-07-31T01:17:37;3.67;;;2.40;;
80123;SDS011;69433;48.642;9.142;2023-07-31T01:20:04;5.25;;;2.08;;
80123;SDS011;69433;48.642;9.142;2023-07-31T01:25:21;3.20;;;2.10;;
80123;SDS011;69433;48.642;9.142;2023-07-31T01:28:12;2.65;;;1.92;;
80123;SDS011;69433;48.642;9.142;2023-07-31T01:30:43;4.63;;;2.40;;
80123;SDS011;69433;48.642;9.142;2023-07-31T01:33:11;4.50;;;2.10;;
80123;SDS011;69433;48.642;9.142;2023-07-31T01:35:37;4.72;;;2.00;;
80123;SDS011;69433;48.642;9.142;2023-07-31T01:38:04;3.38;;;2.10;;
80123;SDS011;69433;48.642;9.142;2023-07-31T01:40:30;5.25;;;2.42;;
80123;SDS011;69433;48.642;9.142;2023-07-31T01:42:55;5.20;;;2.22;;
80123;SDS011;69433;48.642;9.142;2023-07-31T01:45:20;4.50;;;2.42;;
80123;SDS011;69433;48.642;9.142;2023-07-31T01:47:46;3.92;;;2.38;;
80123;SDS011;69433;48.642;9.142;2023-07-31T01:50:11;2.70;;;1.83;;
80123;SDS011;69433;48.642;9.142;2023-07-31T01:52:36;3.80;;;1.95;;
80123;SDS011;69433;48.642;9.142;2023-07-31T01:55:02;3.50;;;2.03;;
80123;SDS011;69433;48.642;9.142;2023-07-31T01:57:29;5.05;;;1.90;;
80123;SDS011;69433;48.642;9.142;2023-07-31T01:59:54;5.03;;;1.92;;
80123;SDS011;69433;48.642;9.142;2023-07-31T02:02:20;4.85;;;2.17;;
80123;SDS011;69433;48.642;9.142;2023-07-31T02:04:45;5.28;;;2.33;;
80123;SDS011;69433;48.642;9.142;2023-07-31T02:07:11;3.38;;;1.90;;
80123;SDS011;69433;48.642;9.142;2023-07-31T02:09:37;4.75;;;1.95;;
80123;SDS011;69433;48.642;9.142;2023-07-31T02:12:02;3.38;;;2.03;;
80123;SDS011;69433;48.642;9.142;2023-07-31T02:14:27;3.78;;;2.05;;
80123;SDS011;69433;48.642;9.142;2023-07-31T02:16:52;4.85;;;2.28;;
80123;SDS011;69433;48.642;9.142;2023-07-31T02:19:18;3.00;;;1.80;;
80123;SDS011;69433;48.642;9.142;2023-07-31T02:21:43;8.63;;;2.20;;
80123;SDS011;69433;48.642;9.142;2023-07-31T02:24:09;3.03;;;1.90;;
80123;SDS011;69433;48.642;9.142;2023-07-31T02:26:35;5.45;;;2.40;;
80123;SDS011;69433;48.642;9.142;2023-07-31T02:29:00;4.22;;;2.10;;
80123;SDS011;69433;48.642;9.142;2023-07-31T02:31:25;2.80;;;1.70;;
80123;SDS011;69433;48.642;9.142;2023-07-31T02:33:51;4.43;;;2.10;;
80123;SDS011;69433;48.642;9.142;2023-07-31T02:36:16;3.65;;;1.98;;
80123;SDS011;69433;48.642;9.142;2023-07-31T02:38:41;3.63;;;1.88;;
80123;SDS011;69433;48.642;9.142;2023-07-31T02:41:07;2.83;;;2.00;;
80123;SDS011;69433;48.642;9.142;2023-07-31T02:43:32;4.75;;;1.75;;
80123;SDS011;69433;48.642;9.142;2023-07-31T02:45:59;3.30;;;1.95;;
80123;SDS011;69433;48.642;9.142;2023-07-31T02:48:24;3.75;;;2.03;;
80123;SDS011;69433;48.642;9.142;2023-07-31T02:50:49;4.55;;;2.10;;
80123;SDS011;69433;48.642;9.142;2023-07-31T02:53:15;3.58;;;2.10;;
80123;SDS011;69433;48.642;9.142;2023-07-31T02:55:40;3.63;;;2.00;;
80123;SDS011;69433;48.642;9.142;2023-07-31T02:58:08;4.20;;;1.85;;
80123;SDS011;69433;48.642;9.142;2023-07-31T03:00:33;2.78;;;1.88;;
80123;SDS011;69433;48.642;9.142;2023-07-31T03:02:58;4.97;;;2.10;;
80123;SDS011;69433;48.642;9.142;2023-07-31T03:05:24;4.30;;;2.33;;
80123;SDS011;69433;48.642;9.142;2023-07-31T03:07:49;3.80;;;1.98;;
80123;SDS011;69433;48.642;9.142;2023-07-31T03:10:14;5.35;;;2.25;;
80123;SDS011;69433;48.642;9.142;2023-07-31T03:12:40;6.90;;;2.05;;
80123;SDS011;69433;48.642;9.142;2023-07-31T03:15:06;3.53;;;2.00;;
80123;SDS011;69433;48.642;9.142;2023-07-31T03:17:32;3.13;;;1.98;;
80123;SDS011;69433;48.642;9.142;2023-07-31T03:19:57;2.67;;;1.83;;
80123;SDS011;69433;48.642;9.142;2023-07-31T03:22:22;4.63;;;1.83;;
80123;SDS011;69433;48.642;9.142;2023-07-31T03:24:48;5.18;;;2.03;;
80123;SDS011;69433;48.642;9.142;2023-07-31T03:27:14;5.93;;;1.80;;
80123;SDS011;69433;48.642;9.142;2023-07-31T03:29:39;3.10;;;1.83;;
80123;SDS011;69433;48.642;9.142;2023-07-31T03:32:04;2.83;;;1.90;;
80123;SDS011;69433;48.642;9.142;2023-07-31T03:34:30;5.22;;;1.98;;
80123;SDS011;69433;48.642;9.142;2023-07-31T03:36:57;3.70;;;2.20;;
80123;SDS011;69433;48.642;9.142;2023-07-31T03:39:22;2.90;;;1.88;;
80123;SDS011;69433;48.642;9.142;2023-07-31T03:41:50;4.22;;;2.10;;
80123;SDS011;69433;48.642;9.142;2023-07-31T03:44:15;2.75;;;1.92;;
80123;SDS011;69433;48.642;9.142;2023-07-31T03:46:40;3.78;;;2.03;;
80123;SDS011;69433;48.642;9.142;2023-07-31T03:49:08;4.60;;;2.00;;
80123;SDS011;69433;48.642;9.142;2023-07-31T03:51:33;2.97;;;1.75;;
80123;SDS011;69433;48.642;9.142;2023-07-31T03:53:58;6.30;;;2.15;;
80123;SDS011;69433;48.642;9.142;2023-07-31T03:56:24;4.13;;;2.00;;
80123;SDS011;69433;48.642;9.142;2023-07-31T03:58:49;4.88;;;2.22;;
80123;SDS011;69433;48.642;9.142;2023-07-31T04:01:14;2.70;;;1.60;;
80123;SDS011;69433;48.642;9.142;2023-07-31T04:03:39;3.67;;;2.00;;
80123;SDS011;69433;48.642;9.142;2023-07-31T04:06:05;4.43;;;2.20;;
80123;SDS011;69433;48.642;9.142;2023-07-31T04:08:32;7.05;;;2.17;;
80123;SDS011;69433;48.642;9.142;2023-07-31T04:10:57;4.13;;;2.10;;
80123;SDS011;69433;48.642;9.142;2023-07-31T04:13:22;3.22;;;1.98;;
80123;SDS011;69433;48.642;9.142;2023-07-31T04:15:50;4.45;;;1.88;;
80123;SDS011;69433;48.642;9.142;2023-07-31T04:18:18;3.88;;;2.03;;
80123;SDS011;69433;48.642;9.142;2023-07-31T04:20:43;2.90;;;1.90;;
80123;SDS011;69433;48.642;9.142;2023-07-31T04:23:08;3.70;;;1.95;;
80123;SDS011;69433;48.642;9.142;2023-07-31T04:25:33;4.88;;;1.70;;
80123;SDS011;69433;48.642;9.142;2023-07-31T04:28:00;3.65;;;1.90;;
80123;SDS011;69433;48.642;9.142;2023-07-31T04:30:25;4.97;;;2.13;;
80123;SDS011;69433;48.642;9.142;2023-07-31T04:32:50;8.43;;;2.00;;
80123;SDS011;69433;48.642;9.142;2023-07-31T04:35:16;5.68;;;2.22;;
80123;SDS011;69433;48.642;9.142;2023-07-31T04:37:41;4.07;;;2.22;;
80123;SDS011;69433;48.642;9.142;2023-07-31T04:40:07;4.72;;;1.90;;
80123;SDS011;69433;48.642;9.142;2023-07-31T04:42:33;4.07;;;1.98;;
80123;SDS011;69433;48.642;9.142;2023-07-31T04:44:59;4.57;;;2.08;;
80123;SDS011;69433;48.642;9.142;2023-07-31T04:47:24;4.40;;;1.95;;
80123;SDS011;69433;48.642;9.142;2023-07-31T04:49:50;5.38;;;2.05;;
80123;SDS011;69433;48.642;9.142;2023-07-31T04:52:15;3.03;;;2.20;;
80123;SDS011;69433;48.642;9.142;2023-07-31T04:54:40;4.32;;;2.25;;
80123;SDS011;69433;48.642;9.142;2023-07-31T04:57:07;3.45;;;2.03;;
80123;SDS011;69433;48.642;9.142;2023-07-31T04:59:32;4.10;;;2.00;;
80123;SDS011;69433;48.642;9.142;2023-07-31T05:01:57;4.10;;;1.95;;
80123;SDS011;69433;48.642;9.142;2023-07-31T05:04:22;4.13;;;2.00;;
80123;SDS011;69433;48.642;9.142;2023-07-31T05:06:48;4.57;;;1.92;;
80123;SDS011;69433;48.642;9.142;2023-07-31T05:09:13;4.68;;;1.67;;
80123;SDS011;69433;48.642;9.142;2023-07-31T05:11:38;3.42;;;1.95;;
80123;SDS011;69433;48.642;9.142;2023-07-31T05:14:06;3.28;;;1.70;;
80123;SDS011;69433;48.642;9.142;2023-07-31T05:16:32;4.72;;;2.00;;
80123;SDS011;69433;48.642;9.142;2023-07-31T05:18:57;3.72;;;1.80;;
80123;SDS011;69433;48.642;9.142;2023-07-31T05:21:23;3.85;;;1.95;;
80123;SDS011;69433;48.642;9.142;2023-07-31T05:23:49;4.18;;;1.98;;
80123;SDS011;69433;48.642;9.142;2023-07-31T05:26:14;2.42;;;1.90;;
80123;SDS011;69433;48.642;9.142;2023-07-31T05:28:39;3.10;;;2.05;;
80123;SDS011;69433;48.642;9.142;2023-07-31T05:31:05;4.68;;;2.03;;
80123;SDS011;69433;48.642;9.142;2023-07-31T05:33:31;3.35;;;1.90;;
80123;SDS011;69433;48.642;9.142;2023-07-31T05:35:57;3.22;;;1.85;;
80123;SDS011;69433;48.642;9.142;2023-07-31T05:38:22;5.07;;;2.45;;
80123;SDS011;69433;48.642;9.142;2023-07-31T05:40:48;3.53;;;2.00;;
80123;SDS011;69433;48.642;9.142;2023-07-31T05:43:13;3.92;;;2.00;;
80123;SDS011;69433;48.642;9.142;2023-07-31T05:45:39;5.60;;;2.15;;
80123;SDS011;69433;48.642;9.142;2023-07-31T05:48:05;5.10;;;2.00;;
80123;SDS011;69433;48.642;9.142;2023-07-31T05:50:31;2.90;;;1.90;;
80123;SDS011;69433;48.642;9.142;2023-07-31T05:52:57;3.20;;;2.08;;
80123;SDS011;69433;48.642;9.142;2023-07-31T05:55:22;4.43;;;2.10;;
80123;SDS011;69433;48.642;9.142;2023-07-31T05:57:48;3.22;;;1.73;;
80123;SDS011;69433;48.642;9.142;2023-07-31T06:00:13;3.50;;;1.98;;
80123;SDS011;69433;48.642;9.142;2023-07-31T06:02:39;4.63;;;1.90;;
80123;SDS011;69433;48.642;9.142;2023-07-31T06:05:04;4.65;;;1.90;;
80123;SDS011;69433;48.642;9.142;2023-07-31T06:07:33;2.95;;;1.70;;
80123;SDS011;69433;48.642;9.142;2023-07-31T06:09:58;4.20;;;2.05;;
80123;SDS011;69433;48.642;9.142;2023-07-31T06:12:30;3.10;;;1.80;;
80123;SDS011;69433;48.642;9.142;2023-07-31T06:14:56;3.88;;;2.00;;
80123;SDS011;69433;48.642;9.142;2023-07-31T06:17:21;3.90;;;1.90;;
80123;SDS011;69433;48.642;9.142;2023-07-31T06:19:46;4.90;;;1.80;;
80123;SDS011;69433;48.642;9.142;2023-07-31T06:22:13;3.08;;;1.75;;
80123;SDS011;69433;48.642;9.142;2023-07-31T06:24:38;3.50;;;2.03;;
80123;SDS011;69433;48.642;9.142;2023-07-31T06:27:04;3.85;;;2.20;;
80123;SDS011;69433;48.642;9.142;2023-07-31T06:29:30;3.10;;;1.73;;
80123;SDS011;69433;48.642;9.142;2023-07-31T06:31:56;6.15;;;2.30;;
80123;SDS011;69433;48.642;9.142;2023-07-31T06:34:21;3.97;;;1.83;;
80123;SDS011;69433;48.642;9.142;2023-07-31T06:36:47;5.20;;;1.60;;
80123;SDS011;69433;48.642;9.142;2023-07-31T06:39:12;4.82;;;2.00;;
80123;SDS011;69433;48.642;9.142;2023-07-31T06:41:38;5.85;;;2.22;;
80123;SDS011;69433;48.642;9.142;2023-07-31T06:44:03;5.72;;;2.35;;
80123;SDS011;69433;48.642;9.142;2023-07-31T06:46:29;6.22;;;2.28;;
80123;SDS011;69433;48.642;9.142;2023-07-31T06:48:55;4.45;;;2.25;;
80123;SDS011;69433;48.642;9.142;2023-07-31T06:51:21;10.55;;;1.65;;
80123;SDS011;69433;48.642;9.142;2023-07-31T06:53:46;5.88;;;2.30;;
80123;SDS011;69433;48.642;9.142;2023-07-31T06:56:11;6.70;;;2.40;;
80123;SDS011;69433;48.642;9.142;2023-07-31T06:58:37;17.50;;;3.08;;
80123;SDS011;69433;48.642;9.142;2023-07-31T07:01:02;5.57;;;2.40;;
80123;SDS011;69433;48.642;9.142;2023-07-31T07:03:28;6.60;;;2.33;;
80123;SDS011;69433;48.642;9.142;2023-07-31T07:05:53;5.22;;;2.50;;
80123;SDS011;69433;48.642;9.142;2023-07-31T07:08:18;11.23;;;2.45;;
80123;SDS011;69433;48.642;9.142;2023-07-31T07:10:43;4.10;;;2.45;;
80123;SDS011;69433;48.642;9.142;2023-07-31T07:13:09;5.68;;;2.40;;
80123;SDS011;69433;48.642;9.142;2023-07-31T07:15:34;4.82;;;2.28;;
80123;SDS011;69433;48.642;9.142;2023-07-31T07:18:02;4.45;;;2.65;;
80123;SDS011;69433;48.642;9.142;2023-07-31T07:20:28;12.82;;;5.38;;
80123;SDS011;69433;48.642;9.142;2023-07-31T07:22:53;13.30;;;7.03;;
80123;SDS011;69433;48.642;9.142;2023-07-31T07:25:18;17.55;;;7.95;;
80123;SDS011;69433;48.642;9.142;2023-07-31T07:27:44;14.10;;;7.60;;
80123;SDS011;69433;48.642;9.142;2023-07-31T07:32:39;14.35;;;7.47;;
80123;SDS011;69433;48.642;9.142;2023-07-31T07:35:04;15.50;;;7.35;;
80123;SDS011;69433;48.642;9.142;2023-07-31T07:37:31;11.82;;;7.15;;
80123;SDS011;69433;48.642;9.142;2023-07-31T07:39:56;9.70;;;6.40;;
80123;SDS011;69433;48.642;9.142;2023-07-31T07:42:22;10.23;;;5.85;;
80123;SDS011;69433;48.642;9.142;2023-07-31T07:44:47;9.00;;;5.18;;
80123;SDS011;69433;48.642;9.142;2023-07-31T07:47:13;12.32;;;5.28;;
80123;SDS011;69433;48.642;9.142;2023-07-31T07:49:38;8.45;;;4.80;;
80123;SDS011;69433;48.642;9.142;2023-07-31T07:52:04;7.05;;;4.57;;
80123;SDS011;69433;48.642;9.142;2023-07-31T07:54:29;9.23;;;4.68;;
80123;SDS011;69433;48.642;9.142;2023-07-31T07:56:55;7.00;;;3.75;;
80123;SDS011;69433;48.642;9.142;2023-07-31T08:01:54;7.32;;;3.60;;
80123;SDS011;69433;48.642;9.142;2023-07-31T08:04:20;10.20;;;5.07;;
80123;SDS011;69433;48.642;9.142;2023-07-31T08:06:45;10.00;;;6.55;;
80123;SDS011;69433;48.642;9.142;2023-07-31T08:09:10;14.90;;;8.85;;
80123;SDS011;69433;48.642;9.142;2023-07-31T08:11:35;18.90;;;10.57;;
80123;SDS011;69433;48.642;9.142;2023-07-31T08:14:02;18.00;;;12.00;;
80123;SDS011;69433;48.642;9.142;2023-07-31T08:16:28;18.90;;;11.43;;
80123;SDS011;69433;48.642;9.142;2023-07-31T08:18:53;16.85;;;10.05;;
80123;SDS011;69433;48.642;9.142;2023-07-31T08:21:18;16.50;;;10.30;;
80123;SDS011;69433;48.642;9.142;2023-07-31T08:23:44;14.68;;;9.88;;
80123;SDS011;69433;48.642;9.142;2023-07-31T08:26:17;15.27;;;9.52;;
80123;SDS011;69433;48.642;9.142;2023-07-31T08:28:43;15.20;;;8.77;;
80123;SDS011;69433;48.642;9.142;2023-07-31T08:31:09;12.23;;;7.78;;
80123;SDS011;69433;48.642;9.142;2023-07-31T08:33:35;13.23;;;7.22;;
80123;SDS011;69433;48.642;9.142;2023-07-31T08:36:01;14.45;;;7.90;;
80123;SDS011;69433;48.642;9.142;2023-07-31T08:38:26;10.93;;;6.85;;
80123;SDS011;69433;48.642;9.142;2023-07-31T08:40:51;11.00;;;5.95;;
80123;SDS011;69433;48.642;9.142;2023-07-31T08:43:17;11.70;;;6.20;;
80123;SDS011;69433;48.642;9.142;2023-07-31T08:45:47;11.43;;;5.70;;
80123;SDS011;69433;48.642;9.142;2023-07-31T08:48:13;10.10;;;5.60;;
80123;SDS011;69433;48.642;9.142;2023-07-31T08:50:43;11.85;;;5.63;;
80123;SDS011;69433;48.642;9.142;2023-07-31T08:53:09;8.50;;;5.03;;
80123;SDS011;69433;48.642;9.142;2023-07-31T08:55:35;7.75;;;5.07;;
80123;SDS011;69433;48.642;9.142;2023-07-31T08:58:02;9.93;;;4.95;;
80123;SDS011;69433;48.642;9.142;2023-07-31T09:00:35;6.75;;;4.15;;
80123;SDS011;69433;48.642;9.142;2023-07-31T09:03:19;6.82;;;4.40;;
80123;SDS011;69433;48.642;9.142;2023-07-31T09:05:48;9.70;;;5.82;;
80123;SDS011;69433;48.642;9.142;2023-07-31T09:08:16;13.98;;;7.47;;
80123;SDS011;69433;48.642;9.142;2023-07-31T09:10:44;12.77;;;7.78;;
80123;SDS011;69433;48.642;9.142;2023-07-31T09:13:11;12.13;;;7.32;;
80123;SDS011;69433;48.642;9.142;2023-07-31T09:15:37;11.27;;;8.02;;
80123;SDS011;69433;48.642;9.142;2023-07-31T09:18:03;13.57;;;7.20;;
80123;SDS011;69433;48.642;9.142;2023-07-31T09:20:30;14.40;;;7.57;;
80123;SDS011;69433;48.642;9.142;2023-07-31T09:22:56;12.63;;;7.43;;
80123;SDS011;69433;48.642;9.142;2023-07-31T09:25:30;11.73;;;6.22;;
80123;SDS011;69433;48.642;9.142;2023-07-31T09:27:59;11.77;;;6.95;;
80123;SDS011;69433;48.642;9.142;2023-07-31T09:30:26;10.48;;;6.32;;
80123;SDS011;69433;48.642;9.142;2023-07-31T09:32:52;11.18;;;6.53;;
80123;SDS011;69433;48.642;9.142;2023-07-31T09:35:29;10.25;;;7.38;;
80123;SDS011;69433;48.642;9.142;2023-07-31T09:37:57;11.35;;;6.35;;
80123;SDS011;69433;48.642;9.142;2023-07-31T09:40:27;8.63;;;6.30;;
80123;SDS011;69433;48.642;9.142;2023-07-31T09:42:58;9.93;;;6.05;;
80123;SDS011;69433;48.642;9.142;2023-07-31T09:45:25;11.50;;;6.45;;
80123;SDS011;69433;48.642;9.142;2023-07-31T09:47:51;9.60;;;6.07;;
80123;SDS011;69433;48.642;9.142;2023-07-31T09:50:16;9.52;;;6.18;;
80123;SDS011;69433;48.642;9.142;2023-07-31T09:52:42;10.05;;;6.05;;
80123;SDS011;69433;48.642;9.142;2023-07-31T09:55:11;10.68;;;6.30;;
80123;SDS011;69433;48.642;9.142;2023-07-31T09:57:37;9.60;;;6.28;;
80123;SDS011;69433;48.642;9.142;2023-07-31T10:00:06;10.27;;;6.28;;
80123;SDS011;69433;48.642;9.142;2023-07-31T10:02:36;9.68;;;5.95;;
80123;SDS011;69433;48.642;9.142;2023-07-31T10:05:03;8.43;;;5.45;;
80123;SDS011;69433;48.642;9.142;2023-07-31T10:07:29;10.13;;;6.07;;
80123;SDS011;69433;48.642;9.142;2023-07-31T10:09:59;10.18;;;5.88;;
80123;SDS011;69433;48.642;9.142;2023-07-31T10:12:26;8.10;;;5.53;;
80123;SDS011;69433;48.642;9.142;2023-07-31T10:14:55;9.23;;;5.78;;
80123;SDS011;69433;48.642;9.142;2023-07-31T10:17:21;9.32;;;5.63;;
80123;SDS011;69433;48.642;9.142;2023-07-31T10:19:48;9.73;;;5.70;;
80123;SDS011;69433;48.642;9.142;2023-07-31T10:22:14;8.75;;;5.43;;
80123;SDS011;69433;48.642;9.142;2023-07-31T10:24:42;8.43;;;5.65;;
80123;SDS011;69433;48.642;9.142;2023-07-31T10:27:08;9.27;;;5.68;;
80123;SDS011;69433;48.642;9.142;2023-07-31T10:29:34;7.93;;;5.32;;
80123;SDS011;69433;48.642;9.142;2023-07-31T10:32:01;9.25;;;5.57;;
80123;SDS011;69433;48.642;9.142;2023-07-31T10:34:27;6.93;;;5.20;;
80123;SDS011;69433;48.642;9.142;2023-07-31T10:39:56;8.52;;;5.15;;
80123;SDS011;69433;48.642;9.142;2023-07-31T10:42:30;7.38;;;5.30;;
80123;SDS011;69433;48.642;9.142;2023-07-31T10:45:02;8.35;;;5.38;;
80123;SDS011;69433;48.642;9.142;2023-07-31T10:47:38;8.98;;;5.43;;
80123;SDS011;69433;48.642;9.142;2023-07-31T10:50:16;6.85;;;5.20;;
80123;SDS011;69433;48.642;9.142;2023-07-31T10:52:47;7.47;;;5.65;;
80123;SDS011;69433;48.642;9.142;2023-07-31T10:55:27;8.43;;;5.13;;
80123;SDS011;69433;48.642;9.142;2023-07-31T10:58:08;8.18;;;5.70;;
80123;SDS011;69433;48.642;9.142;2023-07-31T11:00:36;9.00;;;5.43;;
80123;SDS011;69433;48.642;9.142;2023-07-31T11:03:04;8.45;;;5.50;;
80123;SDS011;69433;48.642;9.142;2023-07-31T11:11:12;8.10;;;5.30;;
80123;SDS011;69433;48.642;9.142;2023-07-31T11:13:41;7.13;;;4.63;;
80123;SDS011;69433;48.642;9.142;2023-07-31T11:16:14;7.57;;;5.00;;
80123;SDS011;69433;48.642;9.142;2023-07-31T11:18:41;7.60;;;4.82;;
80123;SDS011;69433;48.642;9.142;2023-07-31T11:21:08;8.10;;;5.25;;
80123;SDS011;69433;48.642;9.142;2023-07-31T11:23:37;9.20;;;4.85;;
80123;SDS011;69433;48.642;9.142;2023-07-31T11:26:04;7.28;;;4.75;;
80123;SDS011;69433;48.642;9.142;2023-07-31T11:28:33;7.60;;;5.00;;
80123;SDS011;69433;48.642;9.142;2023-07-31T11:31:00;6.85;;;4.68;;
80123;SDS011;69433;48.642;9.142;2023-07-31T11:33:26;7.30;;;5.30;;
80123;SDS011;69433;48.642;9.142;2023-07-31T11:35:51;7.38;;;4.82;;
80123;SDS011;69433;48.642;9.142;2023-07-31T11:38:26;6.07;;;4.78;;
80123;SDS011;69433;48.642;9.142;2023-07-31T11:40:55;7.00;;;5.10;;
80123;SDS011;69433;48.642;9.142;2023-07-31T11:43:22;6.43;;;4.72;;
80123;SDS011;69433;48.642;9.142;2023-07-31T11:45:52;7.40;;;4.82;;
80123;SDS011;69433;48.642;9.142;2023-07-31T11:48:22;8.32;;;4.93;;
80123;SDS011;69433;48.642;9.142;2023-07-31T11:50:58;7.30;;;4.97;;
80123;SDS011;69433;48.642;9.142;2023-07-31T11:53:43;5.88;;;4.53;;
80123;SDS011;69433;48.642;9.142;2023-07-31T11:56:21;7.95;;;4.82;;
80123;SDS011;69433;48.642;9.142;2023-07-31T11:58:53;6.80;;;4.75;;
80123;SDS011;69433;48.642;9.142;2023-07-31T12:01:20;7.43;;;4.60;;
80123;SDS011;69433;48.642;9.142;2023-07-31T12:03:47;6.85;;;4.70;;
80123;SDS011;69433;48.642;9.142;2023-07-31T12:09:09;7.47;;;4.60;;
80123;SDS011;69433;48.642;9.142;2023-07-31T12:11:44;7.00;;;4.63;;
80123;SDS011;69433;48.642;9.142;2023-07-31T12:14:23;7.07;;;4.40;;
80123;SDS011;69433;48.642;9.142;2023-07-31T12:17:08;7.20;;;4.75;;
80123;SDS011;69433;48.642;9.142;2023-07-31T12:19:33;7.45;;;4.90;;
80123;SDS011;69433;48.642;9.142;2023-07-31T12:22:00;8.68;;;4.20;;
80123;SDS011;69433;48.642;9.142;2023-07-31T12:24:26;6.93;;;4.57;;
80123;SDS011;69433;48.642;9.142;2023-07-31T12:26:52;7.97;;;4.75;;
80123;SDS011;69433;48.642;9.142;2023-07-31T12:29:17;8.40;;;4.35;;
80123;SDS011;69433;48.642;9.142;2023-07-31T12:31:43;6.43;;;4.60;;
80123;SDS011;69433;48.642;9.142;2023-07-31T12:34:19;8.77;;;4.63;;
80123;SDS011;69433;48.642;9.142;2023-07-31T12:36:48;7.88;;;4.20;;
80123;SDS011;69433;48.642;9.142;2023-07-31T12:39:15;9.52;;;4.63;;
80123;SDS011;69433;48.642;9.142;2023-07-31T12:41:41;7.50;;;4.40;;
80123;SDS011;69433;48.642;9.142;2023-07-31T12:44:06;11.98;;;4.90;;
80123;SDS011;69433;48.642;9.142;2023-07-31T12:46:31;11.32;;;4.72;;
80123;SDS011;69433;48.642;9.142;2023-07-31T12:48:57;8.82;;;4.18;;
80123;SDS011;69433;48.642;9.142;2023-07-31T12:51:22;13.30;;;4.38;;
80123;SDS011;69433;48.642;9.142;2023-07-31T12:53:47;12.98;;;4.30;;
80123;SDS011;69433;48.642;9.142;2023-07-31T12:56:19;11.75;;;4.65;;
80123;SDS011;69433;48.642;9.142;2023-07-31T12:58:44;10.18;;;3.90;;
80123;SDS011;69433;48.642;9.142;2023-07-31T13:01:09;11.52;;;4.20;;
80123;SDS011;69433;48.642;9.142;2023-07-31T13:03:34;13.15;;;4.20;;
80123;SDS011;69433;48.642;9.142;2023-07-31T13:06:00;10.05;;;3.90;;
80123;SDS011;69433;48.642;9.142;2023-07-31T13:08:25;8.50;;;3.42;;
80123;SDS011;69433;48.642;9.142;2023-07-31T13:10:50;8.45;;;3.80;;
80123;SDS011;69433;48.642;9.142;2023-07-31T13:13:16;10.57;;;3.63;;
80123;SDS011;69433;48.642;9.142;2023-07-31T13:15:41;7.05;;;3.45;;
80123;SDS011;69433;48.642;9.142;2023-07-31T13:18:06;13.15;;;3.92;;
80123;SDS011;69433;48.642;9.142;2023-07-31T13:20:32;11.68;;;3.92;;
80123;SDS011;69433;48.642;9.142;2023-07-31T13:22:57;10.23;;;3.63;;
80123;SDS011;69433;48.642;9.142;2023-07-31T13:25:22;8.50;;;3.88;;
80123;SDS011;69433;48.642;9.142;2023-07-31T13:27:49;8.35;;;3.33;;
80123;SDS011;69433;48.642;9.142;2023-07-31T13:30:14;7.35;;;3.55;;
80123;SDS011;69433;48.642;9.142;2023-07-31T13:32:39;6.55;;;3.53;;
80123;SDS011;69433;48.642;9.142;2023-07-31T13:35:05;6.35;;;3.42;;
80123;SDS011;69433;48.642;9.142;2023-07-31T13:37:31;9.27;;;3.28;;
80123;SDS011;69433;48.642;9.142;2023-07-31T13:39:56;5.55;;;2.80;;
80123;SDS011;69433;48.642;9.142;2023-07-31T13:42:22;7.00;;;3.60;;
80123;SDS011;69433;48.642;9.142;2023-07-31T13:44:47;6.10;;;3.58;;
80123;SDS011;69433;48.642;9.142;2023-07-31T13:47:12;8.93;;;3.40;;
80123;SDS011;69433;48.642;9.142;2023-07-31T13:49:38;7.72;;;2.95;;
80123;SDS011;69433;48.642;9.142;2023-07-31T13:52:04;7.93;;;3.00;;
80123;SDS011;69433;48.642;9.142;2023-07-31T13:54:29;5.72;;;3.08;;
80123;SDS011;69433;48.642;9.142;2023-07-31T13:56:55;10.38;;;3.30;;
80123;SDS011;69433;48.642;9.142;2023-07-31T13:59:20;4.63;;;2.88;;
80123;SDS011;69433;48.642;9.142;2023-07-31T14:01:46;5.90;;;3.08;;
80123;SDS011;69433;48.642;9.142;2023-07-31T14:04:12;7.90;;;3.63;;
80123;SDS011;69433;48.642;9.142;2023-07-31T14:06:37;7.82;;;3.00;;
80123;SDS011;69433;48.642;9.142;2023-07-31T14:09:02;6.93;;;3.35;;
80123;SDS011;69433;48.642;9.142;2023-07-31T14:11:28;9.57;;;3.00;;
80123;SDS011;69433;48.642;9.142;2023-07-31T14:13:54;7.47;;;3.28;;
80123;SDS011;69433;48.642;9.142;2023-07-31T14:16:21;5.70;;;3.00;;
80123;SDS011;69433;48.642;9.142;2023-07-31T14:18:47;5.47;;;2.97;;
80123;SDS011;69433;48.642;9.142;2023-07-31T14:21:12;5.47;;;2.88;;
80123;SDS011;69433;48.642;9.142;2023-07-31T14:23:37;6.05;;;2.92;;
80123;SDS011;69433;48.642;9.142;2023-07-31T14:26:03;8.38;;;3.20;;
80123;SDS011;69433;48.642;9.142;2023-07-31T14:28:31;6.13;;;2.90;;
80123;SDS011;69433;48.642;9.142;2023-07-31T14:30:56;5.22;;;3.13;;
80123;SDS011;69433;48.642;9.142;2023-07-31T14:33:21;6.00;;;3.00;;
80123;SDS011;69433;48.642;9.142;2023-07-31T14:35:46;8.13;;;3.63;;
80123;SDS011;69433;48.642;9.142;2023-07-31T14:38:12;5.80;;;2.60;;
80123;SDS011;69433;48.642;9.142;2023-07-31T14:40:37;8.00;;;3.22;;
80123;SDS011;69433;48.642;9.142;2023-07-31T14:43:03;5.15;;;2.75;;
80123;SDS011;69433;48.642;9.142;2023-07-31T14:45:32;5.38;;;2.95;;
80123;SDS011;69433;48.642;9.142;2023-07-31T14:47:57;5.70;;;3.08;;
80123;SDS011;69433;48.642;9.142;2023-07-31T14:50:22;7.25;;;2.85;;
80123;SDS011;69433;48.642;9.142;2023-07-31T14:52:50;6.85;;;3.10;;
80123;SDS011;69433;48.642;9.142;2023-07-31T14:55:15;7.75;;;2.83;;
80123;SDS011;69433;48.642;9.142;2023-07-31T14:57:40;13.45;;;2.88;;
80123;SDS011;69433;48.642;9.142;2023-07-31T15:00:06;7.80;;;3.28;;
80123;SDS011;69433;48.642;9.142;2023-07-31T15:02:34;6.63;;;3.00;;